Time;durP1;ratioP1;P1;durP2;ratioP2;P2;SDS_P1;SDS_P2;PMS_P1;PMS_P2;Temp;Humidity;BMP_temperature;BMP_pressure;BME280_temperature;BME280_humidity;BME280_pressure;Samples;Min_cycle;Max_cycle;Signal;HPM_P1;HPM_P2
2023/10/14 00:02:23;;;;;;;1.73;1.48;;;;;;;;;;10420851;28;20227;-78
2023/10/14 00:07:26;;;;;;;1.70;1.60;;;;;;;;;;10394944;28;20269;-79
2023/10/14 00:12:28;;;;;;;2.15;1.90;;;;;;;;;;10421064;28;20264;-78
2023/10/14 00:17:35;;;;;;;4.45;1.88;;;;;;;;;;10409263;28;20264;-78
2023/10/14 00:22:39;;;;;;;2.88;1.73;;;;;;;;;;10404285;28;20246;-78
2023/10/14 00:27:40;;;;;;;3.60;2.25;;;;;;;;;;10424271;28;20231;-80
2023/10/14 00:32:41;;;;;;;5.00;1.92;;;;;;;;;;10435481;28;20280;-78
2023/10/14 00:37:42;;;;;;;2.50;1.58;;;;;;;;;;10444010;28;20218;-80
2023/10/14 00:42:44;;;;;;;4.50;1.95;;;;;;;;;;10405101;28;20218;-79
2023/10/14 00:47:45;;;;;;;3.08;1.60;;;;;;;;;;10414209;28;20262;-78
2023/10/14 00:52:53;;;;;;;3.22;2.00;;;;;;;;;;10093764;28;21693;-79
2023/10/14 00:57:54;;;;;;;3.05;1.50;;;;;;;;;;9927840;28;22193;-79
2023/10/14 01:02:55;;;;;;;3.40;1.67;;;;;;;;;;9939933;28;20226;-78
2023/10/14 01:08:02;;;;;;;2.30;1.73;;;;;;;;;;9947258;28;22160;-80
2023/10/14 01:13:09;;;;;;;2.60;1.60;;;;;;;;;;9943433;28;21450;-81
2023/10/14 01:18:14;;;;;;;1.27;1.27;;;;;;;;;;9936547;28;22640;-77
2023/10/14 01:23:16;;;;;;;1.77;1.48;;;;;;;;;;9924746;28;20249;-78
2023/10/14 01:28:30;;;;;;;3.35;1.65;;;;;;;;;;9949158;28;21964;-78
2023/10/14 01:33:35;;;;;;;3.65;1.85;;;;;;;;;;9913668;28;21893;-80
2023/10/14 01:38:37;;;;;;;2.75;1.58;;;;;;;;;;9947860;28;22038;-77
2023/10/14 01:43:39;;;;;;;1.90;1.77;;;;;;;;;;9902440;28;20222;-77
2023/10/14 01:48:44;;;;;;;1.98;1.92;;;;;;;;;;9837302;28;20222;-77
2023/10/14 01:53:45;;;;;;;1.60;1.60;;;;;;;;;;9842514;28;20253;-79
2023/10/14 01:58:52;;;;;;;2.05;1.80;;;;;;;;;;9832192;28;20214;-78
2023/10/14 02:03:54;;;;;;;1.75;1.67;;;;;;;;;;9812990;28;20214;-77
2023/10/14 02:08:58;;;;;;;4.05;1.70;;;;;;;;;;9837558;28;20218;-77
2023/10/14 02:13:59;;;;;;;3.50;1.75;;;;;;;;;;9868858;28;20224;-78
2023/10/14 02:19:20;;;;;;;2.97;1.52;;;;;;;;;;9830814;28;22553;-77
2023/10/14 02:24:21;;;;;;;3.55;1.77;;;;;;;;;;9827755;28;20312;-78
2023/10/14 02:29:24;;;;;;;4.03;1.85;;;;;;;;;;9825927;28;21940;-77
2023/10/14 02:34:25;;;;;;;2.22;1.70;;;;;;;;;;9829246;28;21935;-78
2023/10/14 02:39:27;;;;;;;3.38;1.80;;;;;;;;;;9885638;28;21822;-77
2023/10/14 02:44:32;;;;;;;1.52;1.42;;;;;;;;;;10410429;28;20284;-78
2023/10/14 02:49:37;;;;;;;5.85;1.98;;;;;;;;;;10423560;28;20676;-78
2023/10/14 02:54:41;;;;;;;2.25;1.80;;;;;;;;;;10404610;28;20203;-78
2023/10/14 02:59:43;;;;;;;2.00;1.70;;;;;;;;;;10435024;28;20296;-77
2023/10/14 03:04:55;;;;;;;1.90;1.38;;;;;;;;;;10440448;28;20762;-78
2023/10/14 03:10:10;;;;;;;4.88;2.05;;;;;;;;;;10423725;28;20250;-78
2023/10/14 03:15:20;;;;;;;1.85;1.75;;;;;;;;;;10434913;28;20206;-77
2023/10/14 03:25:29;;;;;;;2.22;2.00;;;;;;;;;;10422349;28;21162;-78
2023/10/14 03:30:31;;;;;;;3.63;2.50;;;;;;;;;;10443241;28;20229;-77
2023/10/14 03:35:32;;;;;;;3.22;2.40;;;;;;;;;;10446348;28;20211;-79
2023/10/14 03:45:56;;;;;;;4.75;2.22;;;;;;;;;;10448158;28;20296;-78
2023/10/14 03:51:03;;;;;;;1.77;0.60;;;;;;;;;;10408643;28;20226;-77
2023/10/14 03:56:04;;;;;;;0.50;0.50;;;;;;;;;;10429097;28;20215;-75
2023/10/14 04:01:05;;;;;;;1.30;0.47;;;;;;;;;;10400987;28;20211;-76
2023/10/14 04:06:08;;;;;;;0.50;0.50;;;;;;;;;;10430241;28;20222;-74
2023/10/14 04:11:15;;;;;;;2.60;0.65;;;;;;;;;;10411761;28;20272;-75
2023/10/14 04:16:18;;;;;;;0.30;0.30;;;;;;;;;;10389319;28;20218;-75
2023/10/14 04:21:37;;;;;;;2.40;0.50;;;;;;;;;;10415432;28;20223;-75
2023/10/14 04:26:41;;;;;;;0.40;0.40;;;;;;;;;;10400327;28;20349;-76
2023/10/14 04:31:43;;;;;;;0.55;0.30;;;;;;;;;;10426547;28;20264;-76
2023/10/14 04:36:54;;;;;;;1.00;0.20;;;;;;;;;;10430448;28;20218;-75
2023/10/14 04:42:42;;;;;;;2.63;0.43;;;;;;;;;;10026189;28;20257;-75
2023/10/14 04:47:35;;;;;;;0.57;0.10;;;;;;;;;;9729384;28;21670;-75
2023/10/14 04:52:38;;;;;;;0.20;0.20;;;;;;;;;;9717341;28;20320;-75
2023/10/14 04:57:40;;;;;;;0.20;0.20;;;;;;;;;;9747256;28;20292;-74
2023/10/14 05:02:41;;;;;;;0.43;0.30;;;;;;;;;;9699893;28;20393;-74
2023/10/14 05:07:42;;;;;;;0.52;0.25;;;;;;;;;;9699348;28;21448;-74
2023/10/14 05:12:51;;;;;;;3.65;0.22;;;;;;;;;;9682842;28;20241;-75
2023/10/14 05:17:53;;;;;;;0.10;0.10;;;;;;;;;;9684138;28;21201;-74
2023/10/14 05:22:56;;;;;;;1.48;0.20;;;;;;;;;;9662976;28;21120;-73
2023/10/14 05:27:58;;;;;;;0.20;0.20;;;;;;;;;;9636016;28;20802;-74
2023/10/14 05:33:06;;;;;;;0.20;0.20;;;;;;;;;;9668076;28;21367;-74
2023/10/14 05:38:10;;;;;;;2.72;0.20;;;;;;;;;;9637259;28;20364;-73
2023/10/14 05:43:12;;;;;;;0.90;0.30;;;;;;;;;;9645923;28;21633;-73
2023/10/14 05:48:14;;;;;;;1.80;0.20;;;;;;;;;;9677696;28;21073;-76
2023/10/14 05:53:16;;;;;;;1.33;0.20;;;;;;;;;;9658755;28;21151;-76
2023/10/14 05:58:18;;;;;;;0.73;0.20;;;;;;;;;;9660638;28;21860;-74
2023/10/14 06:03:19;;;;;;;0.30;0.30;;;;;;;;;;9671076;28;21130;-79
2023/10/14 06:08:20;;;;;;;0.98;0.20;;;;;;;;;;9685731;28;20469;-77
2023/10/14 06:13:21;;;;;;;2.17;0.20;;;;;;;;;;9652667;28;21808;-77
2023/10/14 06:18:22;;;;;;;0.40;0.40;;;;;;;;;;9654212;28;21344;-74
2023/10/14 06:23:26;;;;;;;1.75;0.20;;;;;;;;;;9677237;28;20900;-78
2023/10/14 06:28:28;;;;;;;2.05;0.50;;;;;;;;;;9687925;28;21306;-74
2023/10/14 06:33:29;;;;;;;2.67;0.40;;;;;;;;;;9686614;28;20926;-74
2023/10/14 06:38:33;;;;;;;0.47;0.20;;;;;;;;;;10130757;28;20215;-77
2023/10/14 06:43:34;;;;;;;2.55;0.30;;;;;;;;;;10401952;28;20835;-75
2023/10/14 06:48:38;;;;;;;4.30;0.40;;;;;;;;;;10402852;28;20229;-76
2023/10/14 06:53:39;;;;;;;1.40;0.30;;;;;;;;;;10418562;28;20598;-77
2023/10/14 06:58:42;;;;;;;1.30;0.40;;;;;;;;;;10434703;28;20218;-77
2023/10/14 07:03:43;;;;;;;2.60;0.40;;;;;;;;;;10408040;28;20226;-77
2023/10/14 07:08:48;;;;;;;1.90;0.40;;;;;;;;;;10402302;28;20231;-77
2023/10/14 07:13:49;;;;;;;1.05;0.30;;;;;;;;;;10430802;28;20211;-77
2023/10/14 07:18:50;;;;;;;1.48;0.50;;;;;;;;;;10415830;28;20348;-76
2023/10/14 07:23:51;;;;;;;4.45;0.35;;;;;;;;;;10418757;28;20206;-78
2023/10/14 07:28:52;;;;;;;0.20;0.20;;;;;;;;;;10411805;28;20280;-77
2023/10/14 07:33:53;;;;;;;3.17;0.75;;;;;;;;;;10444375;28;20265;-77
2023/10/14 07:39:02;;;;;;;0.90;0.22;;;;;;;;;;10438810;28;20210;-77
2023/10/14 07:44:09;;;;;;;0.95;0.20;;;;;;;;;;10416140;28;20206;-77
2023/10/14 07:49:10;;;;;;;3.05;0.60;;;;;;;;;;10415687;28;20234;-79
2023/10/14 07:54:12;;;;;;;1.65;0.40;;;;;;;;;;10417441;28;20224;-77
2023/10/14 07:59:14;;;;;;;3.88;0.52;;;;;;;;;;10432389;28;20425;-79
2023/10/14 08:04:15;;;;;;;2.05;0.40;;;;;;;;;;10413496;28;20244;-76
2023/10/14 08:09:28;;;;;;;2.53;0.40;;;;;;;;;;10394454;28;20293;-76
2023/10/14 08:14:30;;;;;;;5.47;0.50;;;;;;;;;;10405261;28;20303;-76
2023/10/14 08:19:31;;;;;;;4.07;0.43;;;;;;;;;;10404149;28;20772;-76
2023/10/14 08:24:32;;;;;;;5.32;0.47;;;;;;;;;;10403627;28;20226;-76
2023/10/14 08:29:33;;;;;;;6.55;0.55;;;;;;;;;;10404437;28;20361;-77
2023/10/14 08:34:36;;;;;;;3.20;0.50;;;;;;;;;;10408849;28;20221;-78
2023/10/14 08:39:37;;;;;;;0.77;0.43;;;;;;;;;;9695178;28;20872;-74
2023/10/14 08:44:42;;;;;;;4.05;0.57;;;;;;;;;;9715797;28;21543;-75
2023/10/14 08:49:44;;;;;;;3.05;0.43;;;;;;;;;;9704706;28;20373;-72
2023/10/14 08:54:46;;;;;;;1.58;0.40;;;;;;;;;;9697611;28;20214;-75
2023/10/14 08:59:49;;;;;;;2.97;0.43;;;;;;;;;;9701442;28;21916;-75
2023/10/14 09:04:50;;;;;;;4.32;0.30;;;;;;;;;;9703033;28;21175;-75
2023/10/14 09:09:53;;;;;;;3.85;0.40;;;;;;;;;;9698450;28;20230;-75
2023/10/14 09:14:54;;;;;;;1.80;0.47;;;;;;;;;;9707655;28;20215;-75
2023/10/14 09:19:56;;;;;;;2.45;0.40;;;;;;;;;;9689858;28;21017;-75
2023/10/14 09:25:00;;;;;;;2.88;0.38;;;;;;;;;;9689359;28;21256;-74
2023/10/14 09:30:03;;;;;;;0.63;0.43;;;;;;;;;;9673505;28;20890;-74
2023/10/14 09:35:04;;;;;;;2.75;0.40;;;;;;;;;;9666759;28;21694;-76
2023/10/14 09:40:13;;;;;;;3.60;0.40;;;;;;;;;;9663279;28;20356;-75
2023/10/14 09:45:16;;;;;;;5.75;0.40;;;;;;;;;;9683712;28;21049;-73
2023/10/14 09:50:17;;;;;;;1.65;0.30;;;;;;;;;;9727143;28;21368;-79
2023/10/14 09:55:20;;;;;;;3.70;0.55;;;;;;;;;;9774523;28;20206;-74
2023/10/14 10:00:21;;;;;;;2.22;0.43;;;;;;;;;;9732236;28;22187;-74
2023/10/14 10:05:36;;;;;;;4.95;0.40;;;;;;;;;;9755248;28;21201;-74
2023/10/14 10:10:38;;;;;;;4.13;0.50;;;;;;;;;;9798589;28;22623;-72
2023/10/14 10:15:40;;;;;;;2.97;0.70;;;;;;;;;;9775881;28;21796;-74
2023/10/14 10:21:02;;;;;;;2.67;0.40;;;;;;;;;;9804016;28;20218;-73
2023/10/14 10:26:04;;;;;;;1.92;0.40;;;;;;;;;;9857407;28;20231;-75
2023/10/14 10:31:07;;;;;;;2.90;0.35;;;;;;;;;;9834668;28;20230;-75
2023/10/14 10:36:11;;;;;;;3.83;0.45;;;;;;;;;;10400420;28;20203;-76
2023/10/14 10:41:24;;;;;;;0.52;0.28;;;;;;;;;;10405352;28;20210;-76
2023/10/14 10:46:46;;;;;;;2.00;0.38;;;;;;;;;;10407735;28;20211;-76
2023/10/14 10:51:50;;;;;;;3.38;0.38;;;;;;;;;;10391622;28;20242;-78
2023/10/14 10:56:53;;;;;;;2.80;0.30;;;;;;;;;;10426548;28;20864;-77
2023/10/14 11:01:56;;;;;;;1.88;0.40;;;;;;;;;;10407258;28;20630;-77
2023/10/14 11:06:57;;;;;;;2.90;0.30;;;;;;;;;;10429011;28;20217;-76
2023/10/14 11:12:03;;;;;;;2.75;0.57;;;;;;;;;;10414730;28;20210;-78
2023/10/14 11:17:04;;;;;;;4.07;0.40;;;;;;;;;;10412642;28;20722;-75
2023/10/14 11:22:06;;;;;;;1.55;0.35;;;;;;;;;;10426440;28;20218;-73
2023/10/14 11:27:07;;;;;;;0.28;0.20;;;;;;;;;;10385006;28;20239;-75
2023/10/14 11:32:12;;;;;;;1.13;0.38;;;;;;;;;;10411782;28;20207;-78
2023/10/14 11:37:15;;;;;;;1.77;0.30;;;;;;;;;;10412001;28;20801;-77
2023/10/14 11:42:17;;;;;;;1.45;0.52;;;;;;;;;;10408748;28;20221;-77
2023/10/14 11:47:18;;;;;;;1.90;0.40;;;;;;;;;;10412207;28;20218;-77
2023/10/14 11:52:21;;;;;;;2.28;0.20;;;;;;;;;;10408129;28;20214;-79
2023/10/14 11:57:22;;;;;;;2.15;0.40;;;;;;;;;;10425896;28;20222;-77
2023/10/14 12:02:24;;;;;;;1.63;0.25;;;;;;;;;;10406905;28;20219;-77
2023/10/14 12:07:26;;;;;;;3.40;0.85;;;;;;;;;;10426759;28;20269;-77
2023/10/14 12:12:28;;;;;;;0.17;0.17;;;;;;;;;;10410282;28;20380;-77
2023/10/14 12:17:29;;;;;;;2.00;0.40;;;;;;;;;;10428048;28;20680;-78
2023/10/14 12:22:32;;;;;;;1.13;0.50;;;;;;;;;;10404817;28;20253;-77
2023/10/14 12:27:36;;;;;;;0.25;0.22;;;;;;;;;;10406514;28;20718;-78
2023/10/14 12:32:37;;;;;;;1.23;0.50;;;;;;;;;;10400309;28;20245;-75
2023/10/14 12:37:38;;;;;;;3.30;0.30;;;;;;;;;;10429651;28;20218;-75
2023/10/14 12:42:45;;;;;;;1.10;0.50;;;;;;;;;;10052049;28;20251;-75
2023/10/14 12:47:48;;;;;;;1.83;0.25;;;;;;;;;;9903119;28;21741;-73
2023/10/14 12:53:05;;;;;;;3.00;0.50;;;;;;;;;;9798153;28;21544;-75
2023/10/14 12:58:07;;;;;;;1.33;0.57;;;;;;;;;;9760271;28;20210;-75
2023/10/14 13:03:12;;;;;;;2.30;0.50;;;;;;;;;;9851249;28;21596;-76
2023/10/14 13:08:18;;;;;;;0.93;0.40;;;;;;;;;;9749334;28;20218;-78
2023/10/14 13:13:20;;;;;;;0.50;0.40;;;;;;;;;;9723980;28;20225;-75
2023/10/14 13:18:24;;;;;;;0.47;0.30;;;;;;;;;;9728808;28;21530;-76
2023/10/14 13:23:26;;;;;;;0.93;0.30;;;;;;;;;;9720036;28;21818;-77
2023/10/14 13:28:27;;;;;;;3.15;0.20;;;;;;;;;;9721936;28;20242;-76
2023/10/14 13:33:29;;;;;;;0.50;0.30;;;;;;;;;;9707850;28;21823;-76
2023/10/14 13:38:30;;;;;;;3.03;0.22;;;;;;;;;;9697645;28;21475;-75
2023/10/14 13:43:31;;;;;;;4.15;0.55;;;;;;;;;;9717609;28;20235;-76
2023/10/14 13:48:33;;;;;;;2.35;0.30;;;;;;;;;;9715460;28;21607;-75
2023/10/14 13:53:35;;;;;;;5.35;0.30;;;;;;;;;;9716254;28;20219;-76
2023/10/14 13:58:36;;;;;;;1.65;0.45;;;;;;;;;;9724219;28;20290;-76
2023/10/14 14:03:39;;;;;;;2.75;0.47;;;;;;;;;;9730744;28;21876;-76
2023/10/14 14:08:41;;;;;;;4.15;0.30;;;;;;;;;;9736893;28;20234;-75
2023/10/14 14:13:42;;;;;;;2.70;0.43;;;;;;;;;;9696275;28;20250;-76
2023/10/14 14:18:43;;;;;;;2.33;0.47;;;;;;;;;;9740997;28;22029;-76
2023/10/14 14:23:45;;;;;;;1.33;0.40;;;;;;;;;;9719185;28;22276;-77
2023/10/14 14:28:49;;;;;;;2.42;0.40;;;;;;;;;;9926332;28;20700;-77
2023/10/14 14:33:50;;;;;;;3.03;0.28;;;;;;;;;;10419021;28;20317;-77
2023/10/14 14:38:51;;;;;;;2.88;0.28;;;;;;;;;;10435451;28;20195;-76
2023/10/14 14:43:55;;;;;;;1.17;0.30;;;;;;;;;;10433908;28;20223;-77
2023/10/14 14:48:59;;;;;;;3.28;0.82;;;;;;;;;;10440488;28;20211;-76
2023/10/14 14:54:05;;;;;;;3.50;0.32;;;;;;;;;;10402081;28;20535;-76
2023/10/14 14:59:06;;;;;;;4.00;0.30;;;;;;;;;;10433902;28;20210;-79
2023/10/14 15:04:07;;;;;;;3.33;0.28;;;;;;;;;;10418720;28;20289;-77
2023/10/14 15:09:14;;;;;;;2.47;0.30;;;;;;;;;;10440711;28;20275;-78
2023/10/14 15:14:16;;;;;;;0.38;0.38;;;;;;;;;;10415437;28;20210;-78
2023/10/14 15:19:17;;;;;;;0.35;0.22;;;;;;;;;;10423075;28;20219;-77
2023/10/14 15:24:19;;;;;;;2.78;0.20;;;;;;;;;;10420665;28;20298;-77
2023/10/14 15:29:20;;;;;;;0.57;0.10;;;;;;;;;;10416793;28;20210;-75
2023/10/14 15:34:27;;;;;;;0.10;0.10;;;;;;;;;;10403667;28;20215;-78
2023/10/14 15:39:30;;;;;;;4.57;0.22;;;;;;;;;;10420483;28;20623;-76
2023/10/14 15:44:31;;;;;;;1.30;0.28;;;;;;;;;;10433563;28;20250;-78
2023/10/14 15:49:37;;;;;;;1.13;0.25;;;;;;;;;;10400927;28;20309;-77
2023/10/14 15:54:39;;;;;;;0.50;0.35;;;;;;;;;;10411702;28;20233;-77
2023/10/14 15:59:40;;;;;;;1.75;0.50;;;;;;;;;;10417717;28;20242;-81
2023/10/14 16:04:41;;;;;;;0.35;0.20;;;;;;;;;;10401375;28;20652;-78
2023/10/14 16:09:43;;;;;;;1.05;0.22;;;;;;;;;;10411996;28;20210;-79
2023/10/14 16:14:44;;;;;;;1.95;0.30;;;;;;;;;;10411538;28;20791;-79
2023/10/14 16:19:45;;;;;;;3.92;0.38;;;;;;;;;;10432578;28;20206;-79
2023/10/14 16:24:46;;;;;;;1.38;0.22;;;;;;;;;;10415217;28;20260;-77
2023/10/14 16:29:47;;;;;;;1.15;0.20;;;;;;;;;;10123474;28;22349;-75
2023/10/14 16:34:49;;;;;;;1.70;0.30;;;;;;;;;;9885606;28;20222;-77
2023/10/14 16:39:52;;;;;;;4.32;0.25;;;;;;;;;;9888045;28;20227;-79
2023/10/14 16:44:53;;;;;;;1.05;0.30;;;;;;;;;;9899582;28;21657;-75
2023/10/14 16:49:54;;;;;;;4.68;0.60;;;;;;;;;;9879044;28;20225;-76
2023/10/14 16:54:57;;;;;;;3.10;0.50;;;;;;;;;;9872530;28;20311;-76
2023/10/14 16:59:58;;;;;;;1.33;0.50;;;;;;;;;;9790063;28;20331;-75
2023/10/14 17:04:59;;;;;;;1.30;0.40;;;;;;;;;;9782245;28;21451;-76
2023/10/14 17:10:01;;;;;;;1.48;0.75;;;;;;;;;;9774412;28;20319;-75
2023/10/14 17:15:05;;;;;;;4.03;0.63;;;;;;;;;;9830583;28;20211;-76
2023/10/14 17:20:12;;;;;;;0.85;0.57;;;;;;;;;;9815961;28;21654;-77
2023/10/14 17:25:13;;;;;;;2.45;0.30;;;;;;;;;;9725799;28;21660;-77
2023/10/14 17:30:14;;;;;;;2.63;0.40;;;;;;;;;;9741013;28;20272;-76
2023/10/14 17:35:15;;;;;;;0.40;0.40;;;;;;;;;;9764077;28;20284;-77
2023/10/14 17:40:20;;;;;;;0.20;0.20;;;;;;;;;;9738838;28;20222;-78
2023/10/14 17:45:24;;;;;;;0.43;0.20;;;;;;;;;;9740731;28;21503;-77
2023/10/14 17:50:27;;;;;;;0.40;0.30;;;;;;;;;;9807639;28;21799;-76
2023/10/14 17:55:29;;;;;;;0.43;0.13;;;;;;;;;;9744678;28;21565;-79
2023/10/14 18:00:34;;;;;;;1.20;0.20;;;;;;;;;;9768483;28;20226;-78
2023/10/14 18:05:40;;;;;;;0.77;0.20;;;;;;;;;;9756675;28;20259;-77
2023/10/14 18:10:42;;;;;;;0.77;0.22;;;;;;;;;;9737393;28;20227;-77
2023/10/14 18:15:43;;;;;;;0.47;0.40;;;;;;;;;;9744320;28;20316;-77
2023/10/14 18:20:45;;;;;;;0.30;0.30;;;;;;;;;;9743548;28;21620;-75
2023/10/14 18:25:56;;;;;;;0.20;0.20;;;;;;;;;;10108927;28;20224;-74
2023/10/14 18:30:57;;;;;;;3.20;0.43;;;;;;;;;;10418987;28;20222;-75
2023/10/14 18:36:06;;;;;;;2.50;0.20;;;;;;;;;;10388873;28;20226;-75
2023/10/14 18:41:11;;;;;;;0.57;0.30;;;;;;;;;;10424860;28;20450;-76
2023/10/14 18:46:16;;;;;;;0.30;0.30;;;;;;;;;;10403142;28;20704;-74
2023/10/14 18:51:21;;;;;;;0.93;0.30;;;;;;;;;;10416317;28;20253;-75
2023/10/14 18:56:25;;;;;;;1.77;0.20;;;;;;;;;;10402270;28;20700;-78
2023/10/14 19:01:26;;;;;;;0.10;0.10;;;;;;;;;;10413875;28;22447;-77
2023/10/14 19:06:27;;;;;;;1.02;0.20;;;;;;;;;;10407930;28;20312;-78
2023/10/14 19:11:30;;;;;;;0.88;0.20;;;;;;;;;;10388915;28;21487;-80
2023/10/14 19:16:31;;;;;;;0.98;0.20;;;;;;;;;;10407370;28;20214;-76
2023/10/14 19:21:32;;;;;;;2.42;0.20;;;;;;;;;;10392014;28;20210;-78
2023/10/14 19:26:33;;;;;;;0.10;0.10;;;;;;;;;;10408554;28;20222;-77
2023/10/14 19:31:35;;;;;;;1.55;0.30;;;;;;;;;;10406027;28;20214;-78
2023/10/14 19:36:36;;;;;;;0.22;0.15;;;;;;;;;;10401265;28;20222;-77
2023/10/14 19:41:39;;;;;;;0.95;0.30;;;;;;;;;;10408279;28;20402;-76
2023/10/14 19:46:40;;;;;;;0.80;0.50;;;;;;;;;;10396978;28;20258;-78
2023/10/14 19:51:41;;;;;;;0.60;0.30;;;;;;;;;;10405428;28;20214;-77
2023/10/14 19:56:42;;;;;;;0.68;0.20;;;;;;;;;;10402119;28;20221;-80
2023/10/14 20:01:43;;;;;;;1.48;0.32;;;;;;;;;;10413297;28;20221;-80
2023/10/14 20:06:44;;;;;;;1.35;0.28;;;;;;;;;;10398269;28;20941;-80
2023/10/14 20:11:46;;;;;;;1.17;0.35;;;;;;;;;;10400046;28;20214;-77
2023/10/14 20:16:49;;;;;;;2.03;0.75;;;;;;;;;;10425784;28;20225;-77
2023/10/14 20:21:51;;;;;;;3.42;0.70;;;;;;;;;;10410159;28;20258;-80
2023/10/14 20:26:52;;;;;;;3.13;0.30;;;;;;;;;;10404994;28;20714;-78
2023/10/14 20:31:56;;;;;;;2.83;0.25;;;;;;;;;;10429030;28;20671;-78
2023/10/14 20:36:57;;;;;;;2.88;0.30;;;;;;;;;;10342891;28;21479;-79
2023/10/14 20:41:59;;;;;;;2.50;0.28;;;;;;;;;;9768316;28;22367;-78
2023/10/14 20:47:00;;;;;;;1.63;0.40;;;;;;;;;;9770474;28;20218;-78
2023/10/14 20:52:01;;;;;;;0.50;0.20;;;;;;;;;;9766114;28;20256;-78
2023/10/14 20:57:07;;;;;;;1.45;0.32;;;;;;;;;;9791441;28;20222;-76
2023/10/14 21:02:08;;;;;;;0.43;0.20;;;;;;;;;;9807621;28;20353;-77
2023/10/14 21:07:11;;;;;;;3.35;0.40;;;;;;;;;;9852789;28;22321;-80
2023/10/14 21:12:12;;;;;;;2.25;0.32;;;;;;;;;;9887705;28;20311;-76
2023/10/14 21:17:13;;;;;;;4.20;0.30;;;;;;;;;;9834434;28;20214;-78
2023/10/14 21:22:15;;;;;;;2.95;0.30;;;;;;;;;;9837455;28;20900;-77
2023/10/14 21:27:16;;;;;;;1.08;0.47;;;;;;;;;;9883956;28;20239;-77
2023/10/14 21:32:17;;;;;;;2.35;0.40;;;;;;;;;;9859897;28;20341;-76
2023/10/14 21:37:18;;;;;;;5.00;0.30;;;;;;;;;;9868923;28;20300;-79
2023/10/14 21:42:20;;;;;;;3.80;0.40;;;;;;;;;;9889003;28;20227;-81
2023/10/14 21:47:22;;;;;;;0.40;0.40;;;;;;;;;;9861261;28;20221;-78
2023/10/14 21:52:24;;;;;;;6.53;0.40;;;;;;;;;;9893693;28;20253;-77
2023/10/14 21:57:25;;;;;;;0.40;0.40;;;;;;;;;;9873883;28;20226;-77
2023/10/14 22:02:26;;;;;;;2.50;0.30;;;;;;;;;;9878033;28;21353;-77
2023/10/14 22:07:27;;;;;;;2.38;0.40;;;;;;;;;;9899993;28;21850;-78
2023/10/14 22:12:28;;;;;;;4.80;0.30;;;;;;;;;;9881512;28;22400;-77
2023/10/14 22:17:29;;;;;;;0.40;0.40;;;;;;;;;;9871851;28;20227;-78
2023/10/14 22:22:31;;;;;;;1.27;0.40;;;;;;;;;;10206902;28;20202;-77
2023/10/14 22:27:32;;;;;;;5.18;0.55;;;;;;;;;;10412299;28;20249;-78
2023/10/14 22:32:35;;;;;;;2.92;0.30;;;;;;;;;;10430895;28;20298;-78
2023/10/14 22:37:37;;;;;;;2.45;0.35;;;;;;;;;;10435079;28;20217;-77
2023/10/14 22:42:38;;;;;;;6.10;0.68;;;;;;;;;;10415328;28;20928;-76
2023/10/14 22:47:40;;;;;;;5.03;0.40;;;;;;;;;;10424237;28;20288;-77
2023/10/14 22:52:41;;;;;;;0.88;0.50;;;;;;;;;;10409617;28;20247;-77
2023/10/14 22:57:44;;;;;;;5.15;0.43;;;;;;;;;;10416721;28;20203;-77
2023/10/14 23:02:50;;;;;;;1.88;0.30;;;;;;;;;;10418445;28;20230;-76
2023/10/14 23:07:54;;;;;;;2.50;0.85;;;;;;;;;;10424113;28;20218;-77
2023/10/14 23:12:55;;;;;;;3.75;0.57;;;;;;;;;;10405521;28;20306;-76
2023/10/14 23:17:56;;;;;;;1.85;0.45;;;;;;;;;;10436565;28;20215;-78
2023/10/14 23:22:58;;;;;;;4.35;0.47;;;;;;;;;;10423430;28;20218;-78
2023/10/14 23:28:01;;;;;;;1.55;0.43;;;;;;;;;;10436538;28;20215;-77
2023/10/14 23:33:03;;;;;;;2.35;0.40;;;;;;;;;;10403556;28;20211;-78
2023/10/14 23:38:07;;;;;;;3.97;0.40;;;;;;;;;;10420545;28;20221;-76
2023/10/14 23:43:08;;;;;;;6.32;0.40;;;;;;;;;;10402131;28;20206;-76
2023/10/14 23:48:10;;;;;;;5.00;0.50;;;;;;;;;;10439859;28;20250;-76
2023/10/14 23:53:11;;;;;;;2.65;0.50;;;;;;;;;;10419781;28;20267;-77
2023/10/14 23:58:12;;;;;;;4.88;0.52;;;;;;;;;;10389390;28;20217;-79
